Time;durP1;ratioP1;P1;durP2;ratioP2;P2;SDS_P1;SDS_P2;PMS_P1;PMS_P2;Temp;Humidity;BMP_temperature;BMP_pressure;BME280_temperature;BME280_humidity;BME280_pressure;Samples;Min_cycle;Max_cycle;Signal;HPM_P1;HPM_P2
2022/05/27 00:00:41;;;;;;;3.70;0.90;;;;;;;;;;7334284;19;162496;-18
2022/05/27 00:03:15;;;;;;;1.88;0.90;;;;;;;;;;7333265;19;154127;-18
2022/05/27 00:05:46;;;;;;;0.90;0.75;;;;;;;;;;7332901;19;153829;-18
2022/05/27 00:08:18;;;;;;;1.38;0.98;;;;;;;;;;7333776;19;162053;-18
2022/05/27 00:10:52;;;;;;;5.20;1.10;;;;;;;;;;7333506;19;162356;-18
2022/05/27 00:13:24;;;;;;;2.80;0.90;;;;;;;;;;7332817;19;154246;-18
2022/05/27 00:15:56;;;;;;;3.65;1.02;;;;;;;;;;7333975;19;153590;-18
2022/05/27 00:18:27;;;;;;;1.45;0.70;;;;;;;;;;7333452;19;163083;-19
2022/05/27 00:20:59;;;;;;;4.72;0.70;;;;;;;;;;7332810;19;162459;-17
2022/05/27 00:23:31;;;;;;;2.70;0.83;;;;;;;;;;7335869;19;154046;-18
2022/05/27 00:26:04;;;;;;;3.10;0.82;;;;;;;;;;7333596;19;153649;-20
2022/05/27 00:28:36;;;;;;;3.28;1.10;;;;;;;;;;7333217;19;162055;-19
2022/05/27 00:31:07;;;;;;;1.92;0.60;;;;;;;;;;7337237;19;162416;-20
2022/05/27 00:33:41;;;;;;;1.77;0.60;;;;;;;;;;7329666;19;154409;-18
2022/05/27 00:36:14;;;;;;;1.35;0.70;;;;;;;;;;7333229;19;153932;-19
2022/05/27 00:38:46;;;;;;;1.80;0.90;;;;;;;;;;7333038;19;161829;-19
2022/05/27 00:41:20;;;;;;;2.10;0.77;;;;;;;;;;7332688;19;162395;-19
2022/05/27 00:43:51;;;;;;;2.85;0.90;;;;;;;;;;7331949;19;154028;-19
2022/05/27 00:46:28;;;;;;;2.60;0.68;;;;;;;;;;7332008;19;153474;-18
2022/05/27 00:49:06;;;;;;;2.25;0.70;;;;;;;;;;7332569;19;161852;-18
2022/05/27 00:51:44;;;;;;;2.72;0.90;;;;;;;;;;7334531;19;162613;-18
2022/05/27 00:54:18;;;;;;;1.92;0.80;;;;;;;;;;7332938;19;154011;-18
2022/05/27 00:56:57;;;;;;;2.20;0.77;;;;;;;;;;7332238;19;153518;-18
2022/05/27 00:59:33;;;;;;;1.50;0.80;;;;;;;;;;7332458;19;162028;-18
2022/05/27 01:02:04;;;;;;;15.32;0.77;;;;;;;;;;7331005;19;162654;-19
2022/05/27 01:04:37;;;;;;;1.40;0.60;;;;;;;;;;7330679;19;154333;-19
2022/05/27 01:07:09;;;;;;;2.60;0.93;;;;;;;;;;7332574;19;153688;-18
2022/05/27 01:09:44;;;;;;;1.95;0.60;;;;;;;;;;7332190;19;162173;-18
2022/05/27 01:12:34;;;;;;;5.18;0.90;;;;;;;;;;7330345;19;162635;-18
2022/05/27 01:15:22;;;;;;;1.45;0.80;;;;;;;;;;7332470;19;154422;-19
2022/05/27 01:18:04;;;;;;;1.50;0.70;;;;;;;;;;7332328;19;153506;-19
2022/05/27 01:20:42;;;;;;;2.65;0.80;;;;;;;;;;7331909;19;161829;-18
2022/05/27 01:23:58;;;;;;;2.50;0.95;;;;;;;;;;7331439;19;162372;-18
2022/05/27 01:26:59;;;;;;;3.42;1.00;;;;;;;;;;7331100;19;154236;-19
2022/05/27 01:29:57;;;;;;;1.38;0.90;;;;;;;;;;7331961;19;153636;-17
2022/05/27 01:32:38;;;;;;;0.63;0.63;;;;;;;;;;7331273;19;161906;-17
2022/05/27 01:35:18;;;;;;;0.57;0.57;;;;;;;;;;7331592;19;162566;-19
2022/05/27 01:37:55;;;;;;;2.17;0.55;;;;;;;;;;7331906;19;154343;-18
2022/05/27 01:40:33;;;;;;;1.73;0.73;;;;;;;;;;7331642;19;153799;-19
2022/05/27 01:43:14;;;;;;;1.80;0.75;;;;;;;;;;7330033;19;161913;-18
2022/05/27 01:45:53;;;;;;;0.45;0.40;;;;;;;;;;7330130;19;162351;-18
2022/05/27 01:48:30;;;;;;;1.90;0.80;;;;;;;;;;7331522;19;154349;-19
2022/05/27 01:51:07;;;;;;;1.58;0.60;;;;;;;;;;7330258;19;153633;-18
2022/05/27 01:53:47;;;;;;;1.05;0.75;;;;;;;;;;7331032;19;161932;-18
2022/05/27 01:56:23;;;;;;;3.03;0.98;;;;;;;;;;7330737;19;162578;-18
2022/05/27 01:58:59;;;;;;;2.25;0.82;;;;;;;;;;7331434;19;154044;-18
2022/05/27 02:01:36;;;;;;;1.75;0.60;;;;;;;;;;7331080;19;153759;-18
2022/05/27 02:04:18;;;;;;;1.15;0.73;;;;;;;;;;7329698;19;162206;-18
2022/05/27 02:06:53;;;;;;;3.30;0.70;;;;;;;;;;7330638;19;162378;-19
2022/05/27 02:09:30;;;;;;;2.60;0.75;;;;;;;;;;7331047;19;154227;-18
2022/05/27 02:12:05;;;;;;;1.67;0.60;;;;;;;;;;7329415;19;153632;-22
2022/05/27 02:14:42;;;;;;;1.05;0.63;;;;;;;;;;7330500;19;161835;-18
2022/05/27 02:17:18;;;;;;;2.60;0.50;;;;;;;;;;7330109;19;162436;-18
2022/05/27 02:19:57;;;;;;;1.52;0.77;;;;;;;;;;7330503;19;154104;-19
2022/05/27 02:22:33;;;;;;;1.40;0.70;;;;;;;;;;7330537;19;153683;-18
2022/05/27 02:25:10;;;;;;;0.93;0.55;;;;;;;;;;7328463;19;161899;-18
2022/05/27 02:27:48;;;;;;;1.13;0.60;;;;;;;;;;7330043;19;162412;-18
2022/05/27 02:30:22;;;;;;;3.28;0.70;;;;;;;;;;7330318;19;154018;-18
2022/05/27 02:35:49;;;;;;;1.27;0.85;;;;;;;;;;7329846;19;161809;-18
2022/05/27 02:38:20;;;;;;;1.20;0.77;;;;;;;;;;7329732;19;162727;-18
2022/05/27 02:41:01;;;;;;;1.42;0.73;;;;;;;;;;7330031;19;154129;-18
2022/05/27 02:43:44;;;;;;;0.50;0.50;;;;;;;;;;7329901;19;153562;-18
2022/05/27 02:46:25;;;;;;;1.80;0.63;;;;;;;;;;7326478;19;161873;-18
2022/05/27 02:49:09;;;;;;;0.63;0.60;;;;;;;;;;7328023;19;162511;-19
2022/05/27 02:51:50;;;;;;;0.90;0.60;;;;;;;;;;7329642;19;154011;-18
2022/05/27 02:54:27;;;;;;;0.60;0.55;;;;;;;;;;7328931;19;153540;-17
2022/05/27 02:57:04;;;;;;;2.15;1.02;;;;;;;;;;7335754;19;161847;-18
2022/05/27 02:59:38;;;;;;;0.73;0.65;;;;;;;;;;7335840;19;162519;-20
2022/05/27 03:02:12;;;;;;;1.55;0.73;;;;;;;;;;7338134;19;154086;-18
2022/05/27 03:04:46;;;;;;;0.65;0.50;;;;;;;;;;7335611;19;153728;-18
2022/05/27 03:07:34;;;;;;;0.85;0.52;;;;;;;;;;7335766;19;161938;-19
2022/05/27 03:10:23;;;;;;;1.27;0.68;;;;;;;;;;7334502;19;162282;-18
2022/05/27 03:13:15;;;;;;;1.85;0.70;;;;;;;;;;7333976;19;154111;-17
2022/05/27 03:15:57;;;;;;;0.73;0.70;;;;;;;;;;7335897;19;153484;-18
2022/05/27 03:18:39;;;;;;;1.23;0.52;;;;;;;;;;7335517;19;162130;-19
2022/05/27 03:21:20;;;;;;;0.70;0.65;;;;;;;;;;7334173;19;162814;-18
2022/05/27 03:24:11;;;;;;;1.70;0.70;;;;;;;;;;7335523;19;154086;-19
2022/05/27 03:26:59;;;;;;;0.55;0.52;;;;;;;;;;7333422;19;153627;-18
2022/05/27 03:29:35;;;;;;;0.50;0.50;;;;;;;;;;7335067;19;161871;-17
2022/05/27 03:32:15;;;;;;;1.42;0.50;;;;;;;;;;7333425;19;162587;-17
2022/05/27 03:34:53;;;;;;;1.58;0.75;;;;;;;;;;7335141;19;154032;-18
2022/05/27 03:37:31;;;;;;;1.67;0.50;;;;;;;;;;7335177;19;153621;-18
2022/05/27 03:40:10;;;;;;;1.90;0.70;;;;;;;;;;7334659;19;161849;-18
2022/05/27 03:42:44;;;;;;;0.57;0.57;;;;;;;;;;7334674;19;162398;-17
2022/05/27 03:45:19;;;;;;;0.80;0.50;;;;;;;;;;7334542;19;154158;-25
2022/05/27 03:47:52;;;;;;;2.47;0.80;;;;;;;;;;7335071;19;153433;-18
2022/05/27 03:50:27;;;;;;;0.77;0.60;;;;;;;;;;7334713;19;161831;-18
2022/05/27 03:52:59;;;;;;;0.90;0.55;;;;;;;;;;7334476;19;162409;-19
2022/05/27 03:55:33;;;;;;;1.25;0.70;;;;;;;;;;7334762;19;154049;-18
2022/05/27 03:58:04;;;;;;;0.70;0.50;;;;;;;;;;7334804;19;153811;-18
2022/05/27 04:00:35;;;;;;;1.33;0.50;;;;;;;;;;7334291;19;161723;-18
2022/05/27 04:03:06;;;;;;;1.48;0.60;;;;;;;;;;7334200;19;162443;-18
2022/05/27 04:05:37;;;;;;;1.75;0.68;;;;;;;;;;7333644;19;154085;-18
2022/05/27 04:08:10;;;;;;;1.08;0.60;;;;;;;;;;7333834;19;153819;-18
2022/05/27 04:10:44;;;;;;;1.45;0.65;;;;;;;;;;7333846;19;162367;-18
2022/05/27 04:13:15;;;;;;;1.85;0.55;;;;;;;;;;7331346;19;162395;-18
2022/05/27 04:15:46;;;;;;;0.43;0.43;;;;;;;;;;7334231;19;154042;-18
2022/05/27 04:18:17;;;;;;;1.67;0.93;;;;;;;;;;7332715;19;153533;-19
2022/05/27 04:20:49;;;;;;;1.33;0.70;;;;;;;;;;7333698;19;162036;-18
2022/05/27 04:23:21;;;;;;;1.05;0.60;;;;;;;;;;7333626;19;162356;-19
2022/05/27 04:25:55;;;;;;;;;;;;;;;;;;7333496;19;153942;-18
2022/05/27 04:28:27;;;;;;;1.33;0.93;;;;;;;;;;7332707;19;153631;-18
2022/05/27 04:30:59;;;;;;;1.17;0.50;;;;;;;;;;7333436;19;162209;-19
2022/05/27 04:33:32;;;;;;;1.90;0.77;;;;;;;;;;7332013;19;162639;-18
2022/05/27 04:36:06;;;;;;;1.58;0.65;;;;;;;;;;7332563;19;154390;-19
2022/05/27 04:38:41;;;;;;;1.35;0.50;;;;;;;;;;7332027;19;153505;-18
2022/05/27 04:41:15;;;;;;;0.40;0.40;;;;;;;;;;7333172;19;161826;-18
2022/05/27 04:43:46;;;;;;;1.30;0.65;;;;;;;;;;7333064;19;162528;-18
2022/05/27 04:46:17;;;;;;;1.60;0.50;;;;;;;;;;7332324;19;154193;-18
2022/05/27 04:48:49;;;;;;;1.42;0.57;;;;;;;;;;7332207;19;153632;-18
2022/05/27 04:51:20;;;;;;;1.83;0.50;;;;;;;;;;7332395;19;162531;-18
2022/05/27 04:53:52;;;;;;;0.60;0.45;;;;;;;;;;7335700;19;162468;-19
2022/05/27 04:56:28;;;;;;;1.25;0.47;;;;;;;;;;7332915;19;154233;-18
2022/05/27 04:59:00;;;;;;;0.40;0.40;;;;;;;;;;7332768;19;153719;-19
2022/05/27 05:01:31;;;;;;;1.00;0.80;;;;;;;;;;7332377;19;161868;-19
2022/05/27 05:04:02;;;;;;;0.55;0.50;;;;;;;;;;7332276;19;162945;-18
2022/05/27 05:06:34;;;;;;;0.98;0.60;;;;;;;;;;7331459;19;154150;-19
2022/05/27 05:09:05;;;;;;;0.40;0.40;;;;;;;;;;7331627;19;153637;-18
2022/05/27 05:11:39;;;;;;;1.65;0.50;;;;;;;;;;7331314;19;162070;-19
2022/05/27 05:14:10;;;;;;;0.75;0.70;;;;;;;;;;7332025;19;162489;-18
2022/05/27 05:16:42;;;;;;;0.55;0.50;;;;;;;;;;7331417;19;154136;-18
2022/05/27 05:19:13;;;;;;;0.40;0.40;;;;;;;;;;7330658;19;153557;-18
2022/05/27 05:21:44;;;;;;;1.05;0.70;;;;;;;;;;7331728;19;161874;-19
2022/05/27 05:24:16;;;;;;;0.73;0.73;;;;;;;;;;7331750;19;162387;-18
2022/05/27 05:26:50;;;;;;;1.10;1.00;;;;;;;;;;7330750;19;154424;-18
2022/05/27 05:29:21;;;;;;;0.85;0.75;;;;;;;;;;7331972;19;153571;-18
2022/05/27 05:31:52;;;;;;;3.22;1.10;;;;;;;;;;7331747;19;161794;-18
2022/05/27 05:34:24;;;;;;;1.00;0.90;;;;;;;;;;7332056;19;162459;-19
2022/05/27 05:36:56;;;;;;;2.33;1.10;;;;;;;;;;7331662;19;154113;-19
2022/05/27 05:39:27;;;;;;;3.93;1.43;;;;;;;;;;7331595;19;153582;-18
2022/05/27 05:42:03;;;;;;;4.40;1.52;;;;;;;;;;7331121;19;162091;-19
2022/05/27 05:44:35;;;;;;;2.22;1.10;;;;;;;;;;7331158;19;162377;-19
2022/05/27 05:47:06;;;;;;;3.97;1.70;;;;;;;;;;7329180;19;154100;-19
2022/05/27 05:49:38;;;;;;;3.07;1.20;;;;;;;;;;7331310;19;153620;-17
2022/05/27 05:52:09;;;;;;;3.40;1.05;;;;;;;;;;7330996;19;161994;-18
2022/05/27 05:54:41;;;;;;;1.63;1.30;;;;;;;;;;7330850;19;162787;-18
2022/05/27 05:57:15;;;;;;;3.45;1.42;;;;;;;;;;7328600;19;154114;-19
2022/05/27 05:59:47;;;;;;;2.50;1.00;;;;;;;;;;7330905;19;153622;-19
2022/05/27 06:02:18;;;;;;;1.75;1.10;;;;;;;;;;7330365;19;161822;-18
2022/05/27 06:04:49;;;;;;;2.53;0.95;;;;;;;;;;7330598;19;162582;-19
2022/05/27 06:07:21;;;;;;;2.53;1.50;;;;;;;;;;7329143;19;154131;-18
2022/05/27 06:09:52;;;;;;;3.08;1.20;;;;;;;;;;7330693;19;153521;-18
2022/05/27 06:12:26;;;;;;;2.92;1.30;;;;;;;;;;7328248;19;162048;-19
2022/05/27 06:14:57;;;;;;;1.70;1.00;;;;;;;;;;7330104;19;162364;-20
2022/05/27 06:17:29;;;;;;;5.70;1.30;;;;;;;;;;7329479;19;154237;-28
2022/05/27 06:20:01;;;;;;;3.42;1.25;;;;;;;;;;7329245;19;153746;-24
2022/05/27 06:22:32;;;;;;;4.15;1.27;;;;;;;;;;7330159;19;162021;-18
2022/05/27 06:25:04;;;;;;;1.73;1.38;;;;;;;;;;7329934;19;162374;-17
2022/05/27 06:27:38;;;;;;;2.55;1.50;;;;;;;;;;7328842;19;154026;-18
2022/05/27 06:35:39;;;;;;;2.47;1.38;;;;;;;;;;7329221;19;162429;-18
2022/05/27 06:38:12;;;;;;;3.33;1.13;;;;;;;;;;7329709;19;154170;-18
2022/05/27 06:40:43;;;;;;;2.87;1.53;;;;;;;;;;7329795;19;153609;-18
2022/05/27 06:43:17;;;;;;;2.47;1.50;;;;;;;;;;7329202;19;162104;-18
2022/05/27 06:45:48;;;;;;;4.93;1.63;;;;;;;;;;7329089;19;162368;-18
2022/05/27 06:48:20;;;;;;;2.20;1.95;;;;;;;;;;7326520;19;154304;-18
2022/05/27 06:50:51;;;;;;;3.55;2.15;;;;;;;;;;7329453;19;153570;-18
2022/05/27 06:53:22;;;;;;;6.50;2.35;;;;;;;;;;7327859;19;162142;-17
2022/05/27 06:55:54;;;;;;;3.97;2.13;;;;;;;;;;7331295;19;162448;-17
2022/05/27 06:58:29;;;;;;;3.78;2.33;;;;;;;;;;7329071;19;154132;-18
2022/05/27 07:01:00;;;;;;;4.53;2.03;;;;;;;;;;7328956;19;153755;-18
2022/05/27 07:03:31;;;;;;;8.32;2.30;;;;;;;;;;7328431;19;161598;-17
2022/05/27 07:06:03;;;;;;;5.40;1.75;;;;;;;;;;7328679;19;162546;-18
2022/05/27 07:08:34;;;;;;;6.18;2.53;;;;;;;;;;7327139;19;154051;-19
2022/05/27 07:11:06;;;;;;;6.57;1.92;;;;;;;;;;7328692;19;153534;-18
2022/05/27 07:13:41;;;;;;;5.50;2.00;;;;;;;;;;7328644;19;161877;-18
2022/05/27 07:16:12;;;;;;;4.55;2.25;;;;;;;;;;7328402;19;162495;-18
2022/05/27 07:18:43;;;;;;;2.85;1.60;;;;;;;;;;7328796;19;154126;-17
2022/05/27 07:21:15;;;;;;;4.80;1.67;;;;;;;;;;7328319;19;153691;-17
2022/05/27 07:23:47;;;;;;;5.13;2.00;;;;;;;;;;7328034;19;162212;-18
2022/05/27 07:26:18;;;;;;;2.92;1.80;;;;;;;;;;7327985;19;162576;-17
2022/05/27 07:28:52;;;;;;;3.50;1.33;;;;;;;;;;7325456;19;154109;-18
2022/05/27 07:31:24;;;;;;;2.45;1.45;;;;;;;;;;7328265;19;153803;-17
2022/05/27 07:33:55;;;;;;;4.03;1.55;;;;;;;;;;7327750;19;161862;-17
2022/05/27 07:36:27;;;;;;;2.75;1.17;;;;;;;;;;7326623;19;162438;-18
2022/05/27 07:38:58;;;;;;;3.70;1.20;;;;;;;;;;7328004;19;154298;-18
2022/05/27 07:41:30;;;;;;;2.50;1.40;;;;;;;;;;7327805;19;153642;-18
2022/05/27 07:44:05;;;;;;;2.08;1.50;;;;;;;;;;7332656;19;162000;-18
2022/05/27 07:46:39;;;;;;;4.90;1.52;;;;;;;;;;7334428;19;162549;-18
2022/05/27 07:49:10;;;;;;;2.58;1.73;;;;;;;;;;7332950;19;154700;-17
2022/05/27 07:52:03;;;;;;;2.20;1.50;;;;;;;;;;7334390;19;153678;-19
2022/05/27 07:54:35;;;;;;;2.42;1.83;;;;;;;;;;7333002;19;161816;-17
2022/05/27 07:57:23;;;;;;;2.75;1.50;;;;;;;;;;7334130;19;162547;-17
2022/05/27 08:00:04;;;;;;;4.97;1.63;;;;;;;;;;7334344;19;154073;-18
2022/05/27 08:02:41;;;;;;;3.28;1.55;;;;;;;;;;7334280;19;153545;-26
2022/05/27 08:05:16;;;;;;;2.67;1.52;;;;;;;;;;7334397;19;161946;-18
2022/05/27 08:07:48;;;;;;;3.63;1.80;;;;;;;;;;7333710;19;162856;-18
2022/05/27 08:10:22;;;;;;;3.35;1.60;;;;;;;;;;7333219;19;153998;-17
2022/05/27 08:12:54;;;;;;;4.03;1.40;;;;;;;;;;7332643;19;153576;-20
2022/05/27 08:15:28;;;;;;;2.55;1.50;;;;;;;;;;7333570;19;161799;-19
2022/05/27 08:17:59;;;;;;;3.17;1.35;;;;;;;;;;7333930;19;163166;-18
2022/05/27 08:20:34;;;;;;;3.45;1.50;;;;;;;;;;7333906;19;154221;-18
2022/05/27 08:23:05;;;;;;;3.30;1.58;;;;;;;;;;7333800;19;153726;-18
2022/05/27 08:25:38;;;;;;;1.40;1.30;;;;;;;;;;7333643;19;162096;-19
2022/05/27 08:28:09;;;;;;;;;;;;;;;;;;7333596;19;162510;-19
2022/05/27 08:30:43;;;;;;;3.13;1.80;;;;;;;;;;7332489;19;153998;-20
2022/05/27 08:33:15;;;;;;;1.60;1.40;;;;;;;;;;7333388;19;153635;-19
2022/05/27 08:38:33;;;;;;;2.15;1.30;;;;;;;;;;7332603;19;162374;-19
2022/05/27 08:41:34;;;;;;;3.95;1.55;;;;;;;;;;7333358;19;153979;-19
2022/05/27 08:44:20;;;;;;;1.63;1.50;;;;;;;;;;7332171;19;153602;-18
2022/05/27 08:47:04;;;;;;;3.90;1.88;;;;;;;;;;7332672;19;162002;-25
2022/05/27 08:49:39;;;;;;;2.63;1.40;;;;;;;;;;7332501;19;162877;-19
2022/05/27 08:52:16;;;;;;;3.78;1.38;;;;;;;;;;7331848;19;154220;-18
2022/05/27 08:54:51;;;;;;;1.30;1.08;;;;;;;;;;7330326;19;153711;-19
2022/05/27 09:00:14;;;;;;;2.03;1.55;;;;;;;;;;7332273;19;162550;-19
2022/05/27 09:02:53;;;;;;;1.27;1.20;;;;;;;;;;7332592;19;153910;-19
2022/05/27 09:05:29;;;;;;;4.50;1.42;;;;;;;;;;7332480;19;153470;-16
2022/05/27 09:08:05;;;;;;;2.90;1.40;;;;;;;;;;7331888;19;162057;-20
2022/05/27 09:10:42;;;;;;;2.00;1.80;;;;;;;;;;7329519;19;162246;-18
2022/05/27 09:13:21;;;;;;;2.05;1.38;;;;;;;;;;7329168;19;154101;-19
2022/05/27 09:15:58;;;;;;;1.40;1.30;;;;;;;;;;7331968;19;153700;-17
2022/05/27 09:18:42;;;;;;;3.00;1.60;;;;;;;;;;7330560;19;161941;-17
2022/05/27 09:21:28;;;;;;;3.90;1.30;;;;;;;;;;7331049;19;132499;-17
2022/05/27 09:24:15;;;;;;;2.30;1.40;;;;;;;;;;7332034;19;154074;-20
2022/05/27 09:26:48;;;;;;;1.38;1.27;;;;;;;;;;7331689;19;153722;-17
2022/05/27 09:29:32;;;;;;;2.58;1.45;;;;;;;;;;7330194;19;162346;-16
2022/05/27 09:32:09;;;;;;;3.38;1.45;;;;;;;;;;7331360;19;162399;-17
2022/05/27 09:34:46;;;;;;;4.28;1.52;;;;;;;;;;7331534;19;154076;-17
2022/05/27 09:37:26;;;;;;;1.75;1.17;;;;;;;;;;7331680;19;153604;-17
2022/05/27 09:40:00;;;;;;;3.67;1.60;;;;;;;;;;7331072;19;161851;-17
2022/05/27 09:42:35;;;;;;;3.25;1.40;;;;;;;;;;7331144;19;163107;-17
2022/05/27 09:45:08;;;;;;;2.88;1.40;;;;;;;;;;7331410;19;154226;-17
2022/05/27 09:47:40;;;;;;;3.40;1.30;;;;;;;;;;7331387;19;153495;-17
2022/05/27 09:50:27;;;;;;;1.50;1.35;;;;;;;;;;7328221;19;161796;-17
2022/05/27 09:53:01;;;;;;;1.83;1.30;;;;;;;;;;7330751;19;162450;-17
2022/05/27 09:55:41;;;;;;;4.03;1.75;;;;;;;;;;7330924;19;154531;-17
2022/05/27 09:58:12;;;;;;;2.65;1.30;;;;;;;;;;7330986;19;153476;-17
2022/05/27 10:00:49;;;;;;;2.20;1.70;;;;;;;;;;7330623;19;162194;-20
2022/05/27 10:03:33;;;;;;;2.00;1.27;;;;;;;;;;7329470;19;162581;-17
2022/05/27 10:06:11;;;;;;;2.20;1.30;;;;;;;;;;7329960;19;153968;-17
2022/05/27 10:08:46;;;;;;;2.00;1.27;;;;;;;;;;7330628;19;153513;-17
2022/05/27 10:11:21;;;;;;;2.08;1.77;;;;;;;;;;7327643;19;161842;-19
2022/05/27 10:14:14;;;;;;;1.55;1.40;;;;;;;;;;7330284;19;162762;-17
2022/05/27 10:17:00;;;;;;;2.50;1.30;;;;;;;;;;7330556;19;154170;-18
2022/05/27 10:19:31;;;;;;;1.42;1.23;;;;;;;;;;7330412;19;153608;-17
2022/05/27 10:22:08;;;;;;;2.90;1.60;;;;;;;;;;7330046;19;161975;-18
2022/05/27 10:24:41;;;;;;;2.13;1.38;;;;;;;;;;7329961;19;162332;-17
2022/05/27 10:27:15;;;;;;;1.30;1.20;;;;;;;;;;7330192;19;154124;-17
2022/05/27 10:29:57;;;;;;;1.35;1.25;;;;;;;;;;7328348;19;153915;-17
2022/05/27 10:32:32;;;;;;;1.50;1.40;;;;;;;;;;7329665;19;162011;-18
2022/05/27 10:35:05;;;;;;;2.92;1.50;;;;;;;;;;7329483;19;162491;-19
2022/05/27 10:37:52;;;;;;;2.15;1.10;;;;;;;;;;7329904;19;154067;-18
2022/05/27 10:40:34;;;;;;;1.52;1.42;;;;;;;;;;7329817;19;153741;-17
2022/05/27 10:43:19;;;;;;;2.15;1.48;;;;;;;;;;7329423;19;162110;-18
2022/05/27 10:45:55;;;;;;;2.50;1.60;;;;;;;;;;7329203;19;162574;-18
2022/05/27 10:48:40;;;;;;;1.73;1.30;;;;;;;;;;7329632;19;154064;-18
2022/05/27 10:51:25;;;;;;;2.20;1.48;;;;;;;;;;7331000;19;153448;-18
2022/05/27 10:54:13;;;;;;;3.55;1.48;;;;;;;;;;7329024;19;161860;-18
2022/05/27 11:03:03;;;;;;;3.17;1.77;;;;;;;;;;7328842;19;153496;-17
2022/05/27 11:05:44;;;;;;;2.35;1.52;;;;;;;;;;7329608;19;162039;-17
2022/05/27 11:08:27;;;;;;;3.15;1.52;;;;;;;;;;7328249;19;162617;-17
2022/05/27 11:11:13;;;;;;;7.20;1.58;;;;;;;;;;7328698;19;153987;-16
2022/05/27 11:16:49;;;;;;;3.03;1.75;;;;;;;;;;7327365;19;161998;-17
2022/05/27 11:19:47;;;;;;;2.72;1.50;;;;;;;;;;7334418;19;162515;-17
2022/05/27 11:22:29;;;;;;;4.80;2.13;;;;;;;;;;7334634;19;154047;-17
2022/05/27 11:25:30;;;;;;;2.58;1.48;;;;;;;;;;7335048;19;153675;-20
2022/05/27 11:28:40;;;;;;;2.78;1.52;;;;;;;;;;7334858;19;162086;-17
2022/05/27 11:31:25;;;;;;;7.28;1.90;;;;;;;;;;7332876;19;162785;-17
2022/05/27 11:34:03;;;;;;;4.20;1.30;;;;;;;;;;7334914;19;154133;-17
2022/05/27 11:36:55;;;;;;;2.75;1.10;;;;;;;;;;7334952;19;153735;-17
2022/05/27 11:39:43;;;;;;;1.77;1.30;;;;;;;;;;7334239;19;162045;-17
2022/05/27 11:42:24;;;;;;;3.95;1.23;;;;;;;;;;7333189;19;162626;-17
2022/05/27 11:45:09;;;;;;;2.42;1.58;;;;;;;;;;7334666;19;154219;-17
2022/05/27 11:48:02;;;;;;;2.35;1.35;;;;;;;;;;7334480;19;153604;-18
2022/05/27 11:50:48;;;;;;;;;;;;;;;;;;7334647;19;161729;-17
2022/05/27 11:53:39;;;;;;;2.78;1.30;;;;;;;;;;7335627;19;162612;-17
2022/05/27 11:56:18;;;;;;;2.67;1.40;;;;;;;;;;7333323;19;154053;-18
2022/05/27 11:58:59;;;;;;;4.05;1.65;;;;;;;;;;7332372;19;153633;-18
2022/05/27 12:01:39;;;;;;;3.42;1.50;;;;;;;;;;7337645;19;161863;-18
2022/05/27 12:04:18;;;;;;;2.83;1.48;;;;;;;;;;7333771;19;162994;-17
2022/05/27 12:06:55;;;;;;;4.15;1.80;;;;;;;;;;7338026;19;154010;-23
2022/05/27 12:09:35;;;;;;;2.58;1.30;;;;;;;;;;7333950;19;153561;-18
2022/05/27 12:12:12;;;;;;;1.50;1.33;;;;;;;;;;7331491;19;161619;-18
2022/05/27 12:14:47;;;;;;;4.00;1.63;;;;;;;;;;7333203;19;162443;-18
2022/05/27 12:17:24;;;;;;;2.22;1.27;;;;;;;;;;7333638;19;154058;-17
2022/05/27 12:20:00;;;;;;;2.78;1.33;;;;;;;;;;7332312;19;153642;-17
2022/05/27 12:22:34;;;;;;;3.08;1.55;;;;;;;;;;7333058;19;161964;-18
2022/05/27 12:25:10;;;;;;;3.05;1.58;;;;;;;;;;7333059;19;162347;-17
2022/05/27 12:27:41;;;;;;;4.82;1.45;;;;;;;;;;7333528;19;153712;-17
2022/05/27 12:30:16;;;;;;;3.15;1.40;;;;;;;;;;7331813;19;153544;-16
2022/05/27 12:32:51;;;;;;;2.60;1.00;;;;;;;;;;7330518;19;161883;-16
2022/05/27 12:35:27;;;;;;;2.85;1.67;;;;;;;;;;7332748;19;162440;-17
2022/05/27 12:38:03;;;;;;;3.45;1.30;;;;;;;;;;7333039;19;154693;-17
2022/05/27 12:40:40;;;;;;;1.77;1.08;;;;;;;;;;7333055;19;153476;-17
2022/05/27 12:43:23;;;;;;;2.10;1.10;;;;;;;;;;7332298;19;161946;-17
2022/05/27 12:45:57;;;;;;;2.15;0.90;;;;;;;;;;7330743;19;162583;-18
2022/05/27 12:48:34;;;;;;;3.15;1.13;;;;;;;;;;7330669;19;154016;-18
2022/05/27 12:51:09;;;;;;;2.15;1.17;;;;;;;;;;7331705;19;153524;-18
2022/05/27 12:53:47;;;;;;;2.88;1.10;;;;;;;;;;7335354;19;161791;-18
2022/05/27 13:02:51;;;;;;;2.20;1.27;;;;;;;;;;7331971;19;153663;-18
2022/05/27 13:05:46;;;;;;;2.70;1.08;;;;;;;;;;7329862;19;161991;-18
2022/05/27 13:08:24;;;;;;;1.50;0.90;;;;;;;;;;7331711;19;162535;-18
2022/05/27 13:10:56;;;;;;;3.00;1.08;;;;;;;;;;7332523;19;154486;-18
2022/05/27 13:13:33;;;;;;;2.03;1.10;;;;;;;;;;7326769;19;153299;-18
2022/05/27 13:16:31;;;;;;;3.28;1.13;;;;;;;;;;7332108;19;162575;-18
2022/05/27 13:19:04;;;;;;;4.28;1.40;;;;;;;;;;7331507;19;163890;-17
2022/05/27 13:21:44;;;;;;;2.90;1.13;;;;;;;;;;7333912;19;154418;-17
2022/05/27 13:24:33;;;;;;;5.10;1.80;;;;;;;;;;7332816;19;153655;-17
2022/05/27 13:27:13;;;;;;;8.50;3.95;;;;;;;;;;7332648;19;161858;-17
2022/05/27 13:29:52;;;;;;;19.92;7.25;;;;;;;;;;7333135;19;162213;-17
2022/05/27 13:32:25;;;;;;;31.77;15.43;;;;;;;;;;7332448;19;154226;-18
2022/05/27 13:35:00;;;;;;;72.47;33.22;;;;;;;;;;7334320;19;153809;-17
2022/05/27 13:37:51;;;;;;;84.95;39.75;;;;;;;;;;7333010;19;161895;-17
2022/05/27 13:40:29;;;;;;;175.30;85.13;;;;;;;;;;7333536;19;162381;-18
2022/05/27 13:43:07;;;;;;;167.05;82.60;;;;;;;;;;7331350;19;154265;-18
2022/05/27 13:45:45;;;;;;;194.15;96.43;;;;;;;;;;7335573;19;153707;-18
2022/05/27 13:48:23;;;;;;;223.18;107.40;;;;;;;;;;7330619;19;161895;-18
2022/05/27 13:51:07;;;;;;;204.93;97.95;;;;;;;;;;7330513;19;162499;-18
2022/05/27 13:53:40;;;;;;;171.35;81.72;;;;;;;;;;7330547;19;154267;-18
2022/05/27 13:56:17;;;;;;;172.63;82.22;;;;;;;;;;7331117;19;153682;-18
2022/05/27 13:58:53;;;;;;;190.95;90.65;;;;;;;;;;7329567;19;161824;-16
2022/05/27 14:01:36;;;;;;;144.80;73.32;;;;;;;;;;7328974;19;163402;-19
2022/05/27 14:04:17;;;;;;;146.68;66.95;;;;;;;;;;7328162;19;154032;-18
2022/05/27 14:06:55;;;;;;;180.63;83.53;;;;;;;;;;7329382;19;153824;-19
2022/05/27 14:09:47;;;;;;;184.40;92.60;;;;;;;;;;7328950;19;161829;-20
2022/05/27 14:12:25;;;;;;;184.75;84.32;;;;;;;;;;7329914;19;163310;-17
2022/05/27 14:14:57;;;;;;;152.02;77.60;;;;;;;;;;7327974;19;154352;-17
2022/05/27 14:17:28;;;;;;;;;;;;;;;;;;7330086;19;153964;-17
2022/05/27 14:20:03;;;;;;;206.98;92.18;;;;;;;;;;7328457;19;161964;-17
2022/05/27 14:22:43;;;;;;;189.70;92.55;;;;;;;;;;7328360;19;162382;-17
2022/05/27 14:25:20;;;;;;;196.02;87.68;;;;;;;;;;7328916;19;154005;-17
2022/05/27 14:27:58;;;;;;;114.47;51.10;;;;;;;;;;7330110;19;153849;-17
2022/05/27 14:30:36;;;;;;;150.98;73.07;;;;;;;;;;7327202;19;161829;-17
2022/05/27 14:33:23;;;;;;;166.30;79.50;;;;;;;;;;7326541;19;162585;-18
2022/05/27 14:35:55;;;;;;;123.57;57.80;;;;;;;;;;7330645;19;154273;-17
2022/05/27 14:38:32;;;;;;;138.63;64.75;;;;;;;;;;7328581;19;153604;-17
2022/05/27 14:41:07;;;;;;;156.00;73.63;;;;;;;;;;7328923;19;161925;-17
2022/05/27 14:43:51;;;;;;;158.65;74.43;;;;;;;;;;7331757;19;162775;-17
2022/05/27 14:46:25;;;;;;;141.75;67.45;;;;;;;;;;7328352;19;154622;-17
2022/05/27 14:48:58;;;;;;;140.77;64.28;;;;;;;;;;7331131;19;153731;-17
2022/05/27 14:51:33;;;;;;;;;;;;;;;;;;7328514;19;161845;-17
2022/05/27 14:54:19;;;;;;;132.38;62.35;;;;;;;;;;7329055;19;162434;-17
2022/05/27 14:56:51;;;;;;;134.65;61.75;;;;;;;;;;7328888;19;154039;-17
2022/05/27 14:59:35;;;;;;;114.83;57.90;;;;;;;;;;7331756;19;153632;-21
2022/05/27 15:02:06;;;;;;;116.82;57.50;;;;;;;;;;7332441;19;162060;-17
2022/05/27 15:04:38;;;;;;;112.90;54.58;;;;;;;;;;7329720;19;162427;-22
2022/05/27 15:07:22;;;;;;;101.47;44.65;;;;;;;;;;7331259;19;154065;-17
2022/05/27 15:10:01;;;;;;;96.60;45.78;;;;;;;;;;7331950;19;153688;-16
2022/05/27 15:12:35;;;;;;;95.45;48.45;;;;;;;;;;7327060;19;162098;-16
2022/05/27 15:15:10;;;;;;;99.97;47.25;;;;;;;;;;7327173;19;162412;-18
2022/05/27 15:17:42;;;;;;;91.53;40.67;;;;;;;;;;7333099;19;154027;-18
2022/05/27 15:20:19;;;;;;;87.65;42.80;;;;;;;;;;7328465;19;153835;-19
2022/05/27 15:22:54;;;;;;;84.38;39.90;;;;;;;;;;7327371;19;161662;-18
2022/05/27 15:25:30;;;;;;;82.75;39.17;;;;;;;;;;7330663;19;162447;-18
2022/05/27 15:33:58;;;;;;;78.60;33.95;;;;;;;;;;7326133;19;162174;-19
2022/05/27 15:36:29;;;;;;;72.35;34.10;;;;;;;;;;7328888;19;162394;-19
2022/05/27 15:39:03;;;;;;;60.53;28.30;;;;;;;;;;7328090;19;154141;-19
2022/05/27 15:41:35;;;;;;;67.72;33.17;;;;;;;;;;7327883;19;153774;-19
2022/05/27 15:44:08;;;;;;;61.80;31.50;;;;;;;;;;7327437;19;162061;-19
2022/05/27 15:46:42;;;;;;;68.93;31.07;;;;;;;;;;7329683;19;162589;-18
2022/05/27 15:49:14;;;;;;;61.20;28.25;;;;;;;;;;7327375;19;154058;-18
2022/05/27 15:51:45;;;;;;;57.60;27.10;;;;;;;;;;7327006;19;153842;-19
2022/05/27 15:54:17;;;;;;;59.78;27.98;;;;;;;;;;7324157;19;162231;-19
2022/05/27 15:56:48;;;;;;;50.85;25.75;;;;;;;;;;7326532;19;162378;-18